Portada
METAR-TAF:

METAR-TAF

Aeroports :

Aeroport d'Alacant-Elx

Alacant, Espanya

latitud: 38-17N, longitud: 000-33W, altitud: 43 m

Observació

L'informe es va fer fa 24 minuts, a les 20:00 UTC
Vent 4 kt del Nord, variant entre Nord-Oest i Nord-Est
Temperatura 12°C
Humitat 82%
Pressió 1027 hPa
Visibilitat 10 km o més
Escasses núvols a una alçada de 2500 ft

METAR: LEAL 102000Z 35004KT 320V040 9999 FEW025 12/09 Q1027 NOSIG

Hora: 21:24 (20:24 UTC)

Pronòstic

L'informe es va fer fa 3 hores i 24 minuts, a les 17:00 UTC
Pronòstic vàlid del 10 a les 18 UTC al 11 a les 18 UTC
Vent 5 kt del Est
Visibilitat 10 km o més
Escasses núvols a una alçada de 4000 ft
Evolucionant progressivament
l' 10 a les 18 UTC al 10 a les 20 UTC
Vent 7 kt del Nord/Nord-Oest
Temporalment
l' 11 a les 12 UTC al 11 a les 18 UTC
Vent 10 kt del Sud

TAF: LEAL 101700Z 1018/1118 10005KT 9999 FEW040 TX20/1112Z TN09/1106Z BECMG 1018/1020 33007KT TEMPO 1112/1118 18010KT

Observacions i pronòstics meteorològics de més de 4000 aeroports (METAR i TAF).

Les estacions disponibles són els punts grocs i vermells al mapa.

Posi el ratolí al punt desitjat per veure el nom de l'estació.

Feu clic per veure les observacions i els pronòstics meteorològics.

Per canviar el mapa: feu clic els botons verds amb una creu de color negre per apropar; al botó verd amb un guió per allunyar la imatge; o en les fletxes verdes per a mapes adjacents.


METAR-TAF: